Port Lavaca, Texas
Current Conditions -  °F | °C
As of 2:55 PM on Thursday 23 Oct 2014 (Local Time) from KPKV Reporting Station
Clear Clear  
Wind Chill: 80°   Ceiling: Unl
Heat Index: 81°   Visibility: 10mi
Dew Point: 60°   Wind: 8mph
Humidity: 50%   Direction: 50°NE
Pressure: 30.06"   Gusts: NA
Location:  28.62°N, 96.62°W
Report Text: KPKV 231955Z AUTO 05007KT 360V060 10SM CLR 27/16 A3006 RMK AO2 T02670155
Loading
Personal Weather Stations






























Interactive Weather Map
Tropical Storm Tracking
New forecast layout! Learn more

10-Day Weather Forecast

Advertisements
Track Severe Weather on mobile